Data for 10/26/2005

Time Sea-Level Adjusted Pressure Absolute Pressure Temperature Relative Humidity Dew Point   
(mb) (inHg) (mb) (inHg) (C) (F) (%) (C) (F)
00:05 1016 30 845 24.95 11.7 53.1 47 0.8 33.5
00:10 1016 30 845 24.95 11.5 52.6 47 0.6 33
00:15 1016 30 845 24.95 11.6 52.8 45 0.2 32.3
00:20 1016 30 845 24.95 11.7 53 46 0.6 33
00:25 1016 30 845 24.95 11.4 52.4 48 0.7 33.3
00:30 1016 30 845 24.95 11.1 51.9 49 0.7 33.3
00:35 1016 30 845 24.95 10.9 51.5 50 1 33.8
00:40 1016 30 845 24.95 10.4 50.8 51 0.9 33.6
00:45 1016 30 845 24.95 10.4 50.7 51 0.9 33.5
00:50 1016 30 845 24.95 10.3 50.5 52 1 33.8
00:55 1016 30 845 24.95 10.2 50.3 52 0.7 33.3
01:00 1016 30 845 24.95 10.5 50.8 50 0.5 33
01:05 1015 29.97 845 24.95 10.7 51.2 51 1 33.8
01:10 1015 29.97 845 24.95 10.4 50.8 51 0.7 33.3
01:15 1016 30 845 24.95 10.4 50.8 48 0 32
01:20 1016 30 845 24.95 10.6 51 49 0.4 32.8
01:25 1016 30 845 24.95 10.3 50.5 49 0.1 32.2
01:30 1016 30 845 24.95 10.1 50.2 50 0.2 32.3
01:35 1016 30 845 24.95 9.9 49.9 50 -0.1 31.8
01:40 1016 30 845 24.95 9.7 49.5 50 -0.2 31.6
01:45 1016 30 845 24.95 9.9 49.8 48 -0.7 30.8
01:50 1015 29.97 845 24.95 10.1 50.1 47 -0.6 31
01:55 1015 29.97 845 24.95 10.2 50.3 47 -0.7 30.7
02:00 1015 29.97 845 24.95 10.2 50.4 46 -0.7 30.7
02:05 1015 29.97 845 24.95 9.8 49.6 49 -0.3 31.4
02:10 1015 29.97 845 24.95 9.4 48.9 51 -0.1 31.7
02:15 1015 29.97 844 24.92 9.4 49 50 -0.4 31.3
02:20 1015 29.97 844 24.92 9.5 49.1 50 -0.4 31.3
02:25 1015 29.97 845 24.95 9.5 49 50 -0.5 31.1
02:30 1015 29.97 845 24.95 9.3 48.7 50 -0.5 31.2
02:35 1015 29.97 845 24.95 9.2 48.5 51 -0.5 31.1
02:40 1016 30 845 24.95 9.6 49.2 49 -0.5 31.2
02:45 1016 30 845 24.95 9.6 49.3 49 -0.4 31.2
02:50 1016 30 845 24.95 9.7 49.4 49 -0.5 31
02:55 1016 30 845 24.95 10.1 50.1 47 -0.6 30.9
03:00 1016 30 845 24.95 10.3 50.5 47 -0.6 31
03:05 1016 30 845 24.95 10 50.1 48 -0.6 31
03:10 1015 29.97 845 24.95 9.9 49.8 48 -0.7 30.8
03:15 1015 29.97 845 24.95 9.8 49.7 48 -0.5 31
03:20 1015 29.97 845 24.95 9.9 49.7 48 -0.7 30.7
03:25 1016 30 845 24.95 10 50 47 -0.6 30.8
03:30 1016 30 845 24.95 10.1 50.2 47 -0.6 30.9
03:35 1016 30 845 24.95 10.5 50.8 45 -0.9 30.4
03:40 1016 30 845 24.95 10.7 51.3 45 -0.6 30.9
03:45 1016 30 845 24.95 10.6 51 45 -0.7 30.8
03:50 1016 30 845 24.95 10.6 51 45 -0.8 30.6
03:55 1016 30 845 24.95 10.5 50.8 46 -0.7 30.7
04:00 1016 30 845 24.95 10.5 51 45 -0.8 30.6
04:05 1015 29.97 845 24.95 10.5 50.9 45 -0.8 30.5
04:10 1015 29.97 845 24.95 10.2 50.3 46 -0.9 30.4
04:15 1015 29.97 845 24.95 10 50 46 -1 30.2
04:20 1016 30 845 24.95 9.9 49.9 46 -1 30.2
04:25 1016 30 845 24.95 9.9 49.8 47 -0.8 30.5
04:30 1015 29.97 845 24.95 9.7 49.5 47 -0.9 30.4
04:35 1015 29.97 845 24.95 9.7 49.4 48 -0.8 30.6
04:40 1015 29.97 844 24.92 9.3 48.7 50 -0.6 30.9
04:45 1015 29.97 844 24.92 8.8 47.9 51 -0.6 30.9
04:50 1015 29.97 844 24.92 8.8 47.8 50 -0.9 30.3
04:55 1015 29.97 845 24.95 9.1 48.3 50 -0.9 30.4
05:00 1015 29.97 845 24.95 9.5 49.1 48 -0.9 30.3
05:05 1015 29.97 845 24.95 9.7 49.4 48 -0.8 30.5
05:10 1015 29.97 845 24.95 9.7 49.5 48 -0.8 30.5
05:15 1015 29.97 845 24.95 10 50 46 -1 30.2
05:20 1015 29.97 845 24.95 9.8 49.6 48 -0.7 30.7
05:25 1016 30 845 24.95 9.7 49.5 47 -1 30.2
05:30 1016 30 845 24.95 10.1 50.2 46 -1 30.2
05:35 1016 30 845 24.95 9.9 49.7 49 -0.2 31.7
05:40 1016 30 845 24.95 9 48.2 51 -0.7 30.8
05:45 1016 30 845 24.95 9.1 48.4 49 -1 30.2
05:50 1016 30 845 24.95 9.4 48.9 48 -0.9 30.4
05:55 1016 30 845 24.95 9.4 48.9 49 -0.7 30.8
06:00 1016 30 845 24.95 8.5 47.3 53 -0.6 31
06:05 1016 30 845 24.95 7.8 46.1 54 -0.7 30.7
06:10 1016 30 845 24.95 8 46.4 53 -0.9 30.5
06:15 1016 30 845 24.95 7.6 45.7 55 -0.7 30.7
06:20 1016 30 845 24.95 7.4 45.4 56 -0.8 30.6
06:25 1016 30 845 24.95 7.4 45.2 57 -0.7 30.8
06:30 1016 30 845 24.95 7.5 45.5 55 -0.9 30.4
06:35 1016 30 845 24.95 7.7 45.8 55 -0.7 30.7
06:40 1016 30 845 24.95 7.9 46.1 54 -0.8 30.5
06:45 1016 30 845 24.95 8.2 46.7 52 -0.9 30.3
06:50 1016 30 845 24.95 8.4 47.2 52 -0.9 30.3
06:55 1016 30 845 24.95 8.8 47.9 51 -0.7 30.7
07:00 1016 30 845 24.95 8.6 47.5 53 -0.4 31.2
07:05 1016 30 845 24.95 8 46.4 55 -0.5 31.1
07:10 1016 30 845 24.95 7.6 45.7 56 -0.5 31.1
07:15 1016 30 845 24.95 7.4 45.2 55 -1.1 30.1
07:20 1016 30 845 24.95 8.3 46.9 52 -1.1 30
07:25 1016 30 845 24.95 8.8 47.8 51 -0.7 30.7
07:30 1016 30 845 24.95 8.9 48 49 -1.2 29.8
07:35 1016 30 845 24.95 9.7 49.5 47 -1.1 30.1
07:40 1016 30 845 24.95 9.2 48.5 53 0.1 32.2
07:45 1016 30 845 24.95 7.4 45.4 58 -0.3 31.5
07:50 1016 30 845 24.95 6.7 44.1 58 -0.9 30.3
07:55 1016 30 845 24.95 7.3 45.1 57 -0.5 31
08:00 1016 30 845 24.95 7.8 46.1 53 -1.2 29.9
08:05 1016 30 845 24.95 9 48.2 50 -0.9 30.4
08:10 1016 30 845 24.95 9.4 48.8 49 -0.8 30.6
08:15 1016 30 845 24.95 9.2 48.5 49 -0.8 30.5
08:20 1016 30 845 24.95 8.9 48.1 50 -0.8 30.5
08:25 1016 30 845 24.95 8.4 47.2 53 -0.5 31.2
08:30 1016 30 845 24.95 8.4 47.1 52 -0.8 30.6
08:35 1016 30 845 24.95 8.3 47 52 -0.8 30.5
08:40 1016 30 845 24.95 8.7 47.6 52 -0.6 30.8
08:45 1016 30 845 24.95 8.7 47.6 52 -0.7 30.8
08:50 1016 30 845 24.95 8.5 47.3 54 -0.4 31.4
08:55 1016 30 845 24.95 8 46.4 55 -0.5 31.1
09:00 1016 30 845 24.95 8.3 46.9 53 -0.8 30.5
09:05 1016 30 845 24.95 8.8 47.8 52 -0.4 31.3
09:10 1016 30 845 24.95 8.8 47.8 52 -0.6 30.9
09:15 1016 30 845 24.95 9.3 48.7 50 -0.7 30.8
09:20 1016 30 845 24.95 10 49.9 48 -0.4 31.3
09:25 1016 30 845 24.95 10.2 50.3 48 -0.2 31.6
09:30 1016 30 845 24.95 10.3 50.6 48 -0.3 31.5
09:35 1016 30 845 24.95 10.5 50.9 47 -0.3 31.5
09:40 1016 30 845 24.95 10.8 51.4 47 -0.1 31.9
09:45 1016 30 845 24.95 11.1 51.9 47 0.1 32.2
09:50 1016 30 845 24.95 11.3 52.3 46 0.3 32.5
09:55 1016 30 845 24.95 11.1 51.9 48 0.5 32.9
10:00 1016 30 845 24.95 11.5 52.7 46 0.5 32.8
10:05 1016 30 845 24.95 11.8 53.3 45 0.4 32.8
10:10 1016 30 845 24.95 12.6 54.6 43 0.4 32.8
10:15 1016 30 845 24.95 13 55.3 42 0.5 32.9
10:20 1016 30 845 24.95 13.2 55.7 43 0.9 33.6
10:25 1016 30 846 24.98 13.4 56.1 41 0.5 32.8
10:30 1016 30 845 24.95 14.1 57.3 38 -0.1 31.8
10:35 1016 30 845 24.95 14.6 58.4 38 0.4 32.8
10:40 1016 30 845 24.95 15 59 36 0.3 32.5
10:45 1016 30 845 24.95 15.6 60.1 34 -0.1 31.9
10:50 1016 30 845 24.95 16 60.8 34 0.2 32.3
10:55 1016 30 845 24.95 16 60.8 33 0 32.1
11:00 1016 30 845 24.95 16.3 61.3 33 0.2 32.4
11:05 1016 30 845 24.95 16.2 61.1 34 0.5 32.9
11:10 1016 30 845 24.95 15.9 60.6 34 0.2 32.4
11:15 1016 30 845 24.95 16.4 61.5 32 -0.1 31.9
11:20 1016 30 845 24.95 16.8 62.3 33 0.6 33
11:25 1016 30 845 24.95 16.7 62.1 34 0.8 33.5
11:30 1016 30 845 24.95 16.6 61.8 34 0.9 33.6
11:35 1016 30 845 24.95 16.8 62.3 34 1 33.7
11:40 1016 30 845 24.95 17.6 63.6 31 0.4 32.8
11:45 1016 30 845 24.95 18.1 64.6 31 0.7 33.3
11:50 1016 30 845 24.95 18.9 65.9 29 0.5 32.8
11:55 1016 30 845 24.95 19.1 66.3 29 1 33.8
12:00 1016 30 845 24.95 18.7 65.6 30 0.9 33.6
12:05 1016 30 845 24.95 19.6 67.2 29 1.1 34.1
12:10 1016 30 845 24.95 20.3 68.5 28 1.4 34.5
12:15 1016 30 845 24.95 20.2 68.3 28 1.3 34.4
12:20 1016 30 845 24.95 20.2 68.3 27 0.9 33.6
12:25 1016 30 845 24.95 20.4 68.7 27 0.9 33.6
12:30 1015 29.97 845 24.95 20.3 68.6 27 1.1 34
12:35 1015 29.97 845 24.95 20.4 68.7 27 1.2 34.1
12:40 1015 29.97 845 24.95 20.3 68.5 28 1.2 34.2
12:45 1015 29.97 844 24.92 19.8 67.6 29 1.4 34.5
12:50 1015 29.97 844 24.92 19.3 66.8 29 0.9 33.7
12:55 1015 29.97 844 24.92 19.7 67.5 28 1 33.8
13:00 1015 29.97 844 24.92 20.6 69 26 0.7 33.3
13:05 1015 29.97 844 24.92 21.2 70.1 27 1.8 35.2
13:10 1015 29.97 844 24.92 19.8 67.6 28 0.8 33.5
13:15 1015 29.97 844 24.92 20.2 68.3 28 1.1 34
13:20 1015 29.97 844 24.92 20.2 68.4 27 0.7 33.2
13:25 1015 29.97 844 24.92 19.8 67.7 28 0.9 33.6
13:30 1014 29.94 844 24.92 19.8 67.6 26 0 32
13:35 1014 29.94 844 24.92 19.3 66.7 28 0.6 33
13:40 1014 29.94 844 24.92 19 66.3 27 -0.2 31.6
13:45 1014 29.94 844 24.92 19.5 67 27 0.1 32.1
13:50 1014 29.94 843 24.89 19.8 67.6 26 -0.3 31.4
13:55 1014 29.94 843 24.89 20.3 68.6 25 0.1 32.1
14:00 1014 29.94 843 24.89 20.2 68.3 27 0.9 33.6
14:05 1014 29.94 843 24.89 19.9 67.8 25 -0.4 31.3
14:10 1014 29.94 843 24.89 19.7 67.5 26 -0.2 31.7
14:15 1014 29.94 843 24.89 19.6 67.3 27 0.1 32.1
14:20 1014 29.94 843 24.89 19.1 66.3 26 -0.6 30.9
14:25 1014 29.94 843 24.89 19.5 67.2 26 -0.5 31
14:30 1014 29.94 843 24.89 19.6 67.2 28 0.7 33.3
14:35 1014 29.94 843 24.89 19.6 67.2 29 1.2 34.2
14:40 1014 29.94 843 24.89 19.8 67.6 29 1.2 34.1
14:45 1014 29.94 843 24.89 20 68 27 0.8 33.5
14:50 1014 29.94 843 24.89 20.6 69.1 29 2.1 35.8
14:55 1014 29.94 843 24.89 20.7 69.2 25 0.3 32.5
15:00 1014 29.94 843 24.89 20.8 69.4 26 0.7 33.2
15:05 1014 29.94 843 24.89 20.6 69 24 -0.7 30.7
15:10 1014 29.94 843 24.89 20.5 68.9 27 0.8 33.4
15:15 1014 29.94 843 24.89 20.7 69.3 26 0.7 33.3
15:20 1014 29.94 843 24.89 21.5 70.6 23 -0.2 31.6
15:25 1014 29.94 843 24.89 21.1 69.9 24 0.1 32.2
15:30 1014 29.94 843 24.89 20.5 68.9 24 -0.5 31
15:35 1014 29.94 843 24.89 20.2 68.3 25 -0.5 31
15:40 1014 29.94 843 24.89 19.8 67.7 24 -1.3 29.7
15:45 1014 29.94 843 24.89 19.4 67 24 -1.3 29.6
15:50 1014 29.94 843 24.89 19.6 67.4 24 -1.3 29.6
15:55 1014 29.94 843 24.89 19.5 67.1 24 -1.3 29.7
16:00 1014 29.94 843 24.89 19.4 67 24 -1.7 29
16:05 1014 29.94 843 24.89 19.2 66.6 25 -1.3 29.7
16:10 1014 29.94 843 24.89 19.2 66.6 25 -1.2 29.9
16:15 1014 29.94 843 24.89 19.2 66.6 24 -1.6 29.2
16:20 1014 29.94 843 24.89 18.9 66.1 25 -1.5 29.3
16:25 1014 29.94 843 24.89 18.8 65.9 25 -1.6 29.1
16:30 1014 29.94 843 24.89 18.9 65.9 25 -1.6 29.1
16:35 1013 29.91 843 24.89 18.8 65.9 25 -1.7 29
16:40 1013 29.91 843 24.89 18.8 65.9 26 -1.1 30
16:45 1013 29.91 843 24.89 18.6 65.4 26 -1.2 29.9
16:50 1013 29.91 843 24.89 18.4 65.2 26 -1.2 29.8
16:55 1013 29.91 843 24.89 18.4 65.2 26 -1.2 29.8
17:00 1013 29.91 843 24.89 18.3 64.9 26 -1.3 29.7
17:05 1014 29.94 843 24.89 18.1 64.6 28 -0.4 31.3
17:10 1014 29.94 843 24.89 18 64.5 27 -1.1 30
17:15 1014 29.94 843 24.89 17.9 64.2 28 -0.9 30.5
17:20 1014 29.94 843 24.89 17.8 64.1 28 -1 30.2
17:25 1014 29.94 843 24.89 17.9 64.3 27 -1 30.3
17:30 1014 29.94 843 24.89 17.8 64.1 28 -0.9 30.4
17:35 1014 29.94 843 24.89 17.8 64.1 28 -1 30.3
17:40 1014 29.94 843 24.89 17.7 63.9 27 -1.4 29.5
17:45 1014 29.94 843 24.89 17.5 63.4 28 -1 30.3
17:50 1014 29.94 843 24.89 17.3 63.2 28 -1.4 29.5
17:55 1014 29.94 843 24.89 17.4 63.2 27 -1.9 28.5
18:00 1014 29.94 843 24.89 17.3 63.1 28 -1.5 29.4
18:05 1014 29.94 843 24.89 17 62.7 28 -1.3 29.7
18:10 1014 29.94 843 24.89 16.7 62 29 -1.5 29.3
18:15 1014 29.94 843 24.89 16.6 61.9 28 -1.7 29
18:20 1014 29.94 843 24.89 16.8 62.3 29 -1.4 29.6
18:25 1014 29.94 843 24.89 16.8 62.2 29 -1.5 29.4
18:30 1014 29.94 843 24.89 16.6 61.9 29 -1.2 29.8
18:35 1014 29.94 843 24.89 16.6 61.9 29 -1.4 29.4
18:40 1014 29.94 843 24.89 16.5 61.6 30 -1 30.2
18:45 1014 29.94 843 24.89 16.5 61.7 29 -1.6 29.2
18:50 1014 29.94 843 24.89 16.4 61.5 31 -0.9 30.4
18:55 1014 29.94 843 24.89 16.2 61.2 31 -1 30.2
19:00 1014 29.94 843 24.89 16.3 61.4 30 -1.1 30
19:05 1014 29.94 843 24.89 16.3 61.4 30 -1.2 29.8
19:10 1014 29.94 843 24.89 16.6 61.9 29 -1.2 29.9
19:15 1014 29.94 843 24.89 16.6 61.8 29 -1.2 29.8
19:20 1014 29.94 843 24.89 16.1 61 31 -0.9 30.3
19:25 1014 29.94 843 24.89 15.6 60.2 34 0 32
19:30 1014 29.94 843 24.89 15.5 59.9 32 -1 30.3
19:35 1014 29.94 843 24.89 15.6 60.1 32 -1 30.1
19:40 1014 29.94 843 24.89 15.9 60.6 31 -1.1 30
19:45 1014 29.94 843 24.89 15.8 60.5 32 -0.8 30.5
19:50 1014 29.94 843 24.89 16 60.7 31 -0.9 30.4
19:55 1014 29.94 843 24.89 15.8 60.4 32 -0.8 30.6
20:00 1014 29.94 843 24.89 15.5 59.8 33 -0.8 30.6
20:05 1014 29.94 843 24.89 15.1 59.1 34 -0.4 31.2
20:10 1014 29.94 843 24.89 14.7 58.5 34 -1 30.2
20:15 1014 29.94 843 24.89 14.6 58.3 34 -0.9 30.3
20:20 1014 29.94 843 24.89 14.5 58.2 33 -1.3 29.6
20:25 1014 29.94 843 24.89 14.7 58.4 34 -1 30.1
20:30 1014 29.94 843 24.89 14.5 58.1 34 -1 30.2
20:35 1014 29.94 843 24.89 14.6 58.3 34 -1.1 29.9
20:40 1014 29.94 843 24.89 14.7 58.4 34 -1.1 30.1
20:45 1014 29.94 843 24.89 14.5 58.2 34 -1.1 30.1
20:50 1014 29.94 843 24.89 14.7 58.5 33 -1.1 29.9
20:55 1014 29.94 843 24.89 14.4 57.9 35 -0.8 30.5
21:00 1014 29.94 843 24.89 13.9 57.1 35 -1 30.2
21:05 1014 29.94 843 24.89 13.8 56.9 37 -0.7 30.7
21:10 1014 29.94 844 24.92 13.5 56.4 38 -0.5 31.1
21:15 1014 29.94 844 24.92 13.5 56.3 36 -1 30.2
21:20 1014 29.94 844 24.92 13.9 56.9 34 -1.5 29.3
21:25 1014 29.94 844 24.92 14.3 57.7 36 -0.7 30.8
21:30 1014 29.94 844 24.92 14 57.2 37 -0.2 31.7
21:35 1014 29.94 844 24.92 13.7 56.7 39 -0.1 31.9
21:40 1014 29.94 844 24.92 13.7 56.7 37 -0.8 30.6
21:45 1014 29.94 844 24.92 14 57.3 34 -1.4 29.5
21:50 1014 29.94 844 24.92 14.4 58 36 -0.4 31.2
21:55 1014 29.94 844 24.92 14.1 57.4 37 -0.1 31.8
22:00 1014 29.94 844 24.92 13.9 57 37 -0.4 31.3
22:05 1014 29.94 844 24.92 13.9 57 36 -0.8 30.5
22:10 1014 29.94 844 24.92 14.1 57.3 37 -0.4 31.3
22:15 1014 29.94 844 24.92 13.6 56.5 38 -0.3 31.5
22:20 1014 29.94 844 24.92 13.3 56 37 -0.9 30.5
22:25 1014 29.94 844 24.92 13.1 55.6 41 0.1 32.3
22:30 1014 29.94 844 24.92 13 55.3 41 0.1 32.2
22:35 1014 29.94 844 24.92 12.9 55.3 41 0 32
22:40 1014 29.94 844 24.92 13 55.4 40 -0.3 31.5
22:45 1014 29.94 844 24.92 13.1 55.5 40 -0 31.9
22:50 1014 29.94 844 24.92 13.1 55.5 40 -0 32
22:55 1014 29.94 844 24.92 13 55.4 41 0 32
23:00 1014 29.94 844 24.92 13.1 55.6 40 -0.2 31.6
23:05 1014 29.94 844 24.92 13.4 56 40 0 32.1
23:10 1014 29.94 844 24.92 13.3 55.9 39 -0.2 31.7
23:15 1014 29.94 844 24.92 13.3 56 39 -0.3 31.5
23:20 1014 29.94 844 24.92 13.4 56 39 -0.1 31.8
23:25 1014 29.94 844 24.92 13.3 56 39 -0.3 31.5
23:30 1015 29.97 844 24.92 13.3 55.9 40 -0 32
23:35 1015 29.97 844 24.92 13.2 55.7 40 -0.2 31.7
23:40 1015 29.97 844 24.92 13.4 56 39 -0.1 31.8
23:45 1015 29.97 844 24.92 13.3 55.9 40 -0 32
23:50 1015 29.97 844 24.92 13.1 55.6 40 -0.2 31.7
23:55 1014 29.94 844 24.92 13.3 55.9 40 -0.1 31.8
24:00 1014 29.94 844 24.92 13.5 56.3 40 0.1 32.2